createdAt,value
2018-02-01T00:00:20.537Z,18.80
2018-02-01T00:02:48.717Z,18.80
2018-02-01T00:05:16.856Z,18.80
2018-02-01T00:07:45.004Z,18.80
2018-02-01T00:10:13.167Z,18.90
2018-02-01T00:12:41.404Z,18.80
2018-02-01T00:15:09.570Z,18.90
2018-02-01T00:17:37.727Z,18.90
2018-02-01T00:20:05.873Z,18.90
2018-02-01T00:22:34.069Z,18.80
2018-02-01T00:25:02.193Z,18.90
2018-02-01T00:27:31.141Z,18.90
2018-02-01T00:29:59.359Z,18.80
2018-02-01T00:32:27.511Z,18.80
2018-02-01T00:34:55.647Z,18.80
2018-02-01T00:37:23.877Z,18.80
2018-02-01T00:39:52.072Z,18.90
2018-02-01T00:42:21.352Z,18.80
2018-02-01T00:44:49.549Z,18.80
2018-02-01T00:47:17.718Z,18.80
2018-02-01T00:49:45.898Z,18.80
2018-02-01T00:52:14.051Z,18.80
2018-02-01T00:54:42.276Z,18.80
2018-02-01T00:57:10.424Z,18.80
2018-02-01T00:59:38.593Z,18.70
2018-02-01T01:02:06.793Z,18.80
2018-02-01T01:04:34.991Z,18.70
2018-02-01T01:07:03.206Z,18.70
2018-02-01T01:09:31.421Z,18.70
2018-02-01T01:12:00.405Z,18.70
2018-02-01T01:14:28.570Z,18.70
2018-02-01T01:16:56.813Z,18.70
2018-02-01T01:19:24.991Z,18.70
2018-02-01T01:21:53.179Z,18.70
2018-02-01T01:24:22.304Z,18.70
2018-02-01T01:26:50.446Z,18.70
2018-02-01T01:29:18.602Z,18.70
2018-02-01T01:31:46.771Z,18.70
2018-02-01T01:34:15.049Z,18.70
2018-02-01T01:36:43.299Z,18.70
2018-02-01T01:39:12.204Z,18.70
2018-02-01T01:41:40.402Z,18.70
2018-02-01T01:44:09.563Z,18.70
2018-02-01T01:46:38.476Z,18.70
2018-02-01T01:49:06.650Z,18.70
2018-02-01T01:51:34.837Z,18.70
2018-02-01T01:54:02.989Z,18.70
2018-02-01T01:56:31.132Z,18.70
2018-02-01T01:58:59.281Z,18.70
2018-02-01T02:01:27.494Z,18.70
2018-02-01T02:03:56.421Z,18.70
2018-02-01T02:06:25.498Z,18.70
2018-02-01T02:08:53.732Z,18.70
2018-02-01T02:11:21.910Z,18.70
2018-02-01T02:13:50.062Z,18.80
2018-02-01T02:16:18.216Z,18.80
2018-02-01T02:18:46.361Z,18.70
2018-02-01T02:21:14.518Z,18.80
2018-02-01T02:23:42.730Z,18.70
2018-02-01T02:26:12.453Z,18.70
2018-02-01T02:28:40.634Z,18.70
2018-02-01T02:31:08.797Z,18.70
2018-02-01T02:33:36.940Z,18.70
2018-02-01T02:36:05.114Z,18.70
2018-02-01T02:38:33.208Z,18.70
2018-02-01T02:41:01.381Z,18.70
2018-02-01T02:43:30.436Z,18.70
2018-02-01T02:45:58.611Z,18.70
2018-02-01T02:48:26.749Z,18.70
2018-02-01T02:50:54.899Z,18.70
2018-02-01T02:53:23.084Z,18.70
2018-02-01T02:55:51.248Z,18.70
2018-02-01T02:58:19.398Z,18.70
2018-02-01T03:00:47.570Z,18.70
2018-02-01T03:03:15.766Z,18.70
2018-02-01T03:05:43.943Z,18.70
2018-02-01T03:08:13.264Z,18.60
2018-02-01T03:10:41.443Z,18.60
2018-02-01T03:13:10.448Z,18.60
2018-02-01T03:15:38.693Z,18.60
2018-02-01T03:18:07.384Z,18.60
2018-02-01T03:20:35.535Z,18.60
2018-02-01T03:23:03.686Z,18.60
2018-02-01T03:25:31.841Z,18.60
2018-02-01T03:28:01.130Z,18.60
2018-02-01T03:30:29.286Z,18.60
2018-02-01T03:32:58.209Z,18.60
2018-02-01T03:35:26.342Z,18.60
2018-02-01T03:37:55.265Z,18.60
2018-02-01T03:40:24.465Z,18.60
2018-02-01T03:42:54.982Z,18.60
2018-02-01T03:45:23.238Z,18.60
2018-02-01T03:47:52.230Z,18.60
2018-02-01T03:50:21.183Z,18.60
2018-02-01T03:52:49.377Z,18.60
2018-02-01T03:55:17.521Z,18.60
2018-02-01T03:57:45.798Z,18.60
2018-02-01T04:00:14.086Z,18.60
2018-02-01T04:02:42.232Z,18.60
2018-02-01T04:05:10.413Z,18.60
2018-02-01T04:07:38.599Z,18.60
2018-02-01T04:10:06.758Z,18.60
2018-02-01T04:12:34.907Z,18.70
2018-02-01T04:15:03.037Z,18.70
2018-02-01T04:17:31.197Z,18.70
2018-02-01T04:19:59.401Z,18.70
2018-02-01T04:22:28.381Z,18.70
2018-02-01T04:24:56.524Z,18.70
2018-02-01T04:27:24.741Z,18.70
2018-02-01T04:29:53.676Z,18.70
2018-02-01T04:32:21.848Z,18.70
2018-02-01T04:34:50.021Z,18.70
2018-02-01T04:37:18.172Z,18.70
2018-02-01T04:39:46.470Z,18.70
2018-02-01T04:42:14.639Z,18.70
2018-02-01T04:44:42.785Z,18.70
2018-02-01T04:47:10.994Z,18.70
2018-02-01T04:49:39.151Z,18.70
2018-02-01T04:52:07.306Z,18.70
2018-02-01T04:54:35.522Z,18.60
2018-02-01T04:57:03.755Z,18.60
2018-02-01T04:59:31.884Z,18.60
2018-02-01T05:02:00.065Z,18.70
2018-02-01T05:04:28.209Z,18.70
2018-02-01T05:06:56.426Z,18.80
2018-02-01T05:09:24.585Z,18.80
2018-02-01T05:11:52.730Z,18.90
2018-02-01T05:14:20.890Z,18.90
2018-02-01T05:16:50.478Z,19.00
2018-02-01T05:19:18.647Z,19.00
2018-02-01T05:21:47.034Z,19.00
2018-02-01T05:24:15.251Z,19.00
2018-02-01T05:26:43.434Z,19.10
2018-02-01T05:29:11.758Z,19.10
2018-02-01T05:31:39.963Z,19.10
2018-02-01T05:34:08.172Z,19.10
2018-02-01T05:36:37.176Z,19.20
2018-02-01T05:39:05.385Z,19.10
2018-02-01T05:41:33.554Z,19.20
2018-02-01T05:44:01.756Z,19.20
2018-02-01T05:46:29.926Z,19.20
2018-02-01T05:48:58.924Z,19.30
2018-02-01T05:51:27.936Z,19.30
2018-02-01T05:53:56.870Z,19.20
2018-02-01T05:56:25.861Z,19.30
2018-02-01T05:58:54.009Z,19.30
2018-02-01T06:01:23.570Z,19.30
2018-02-01T06:03:51.741Z,19.30
2018-02-01T06:06:19.933Z,19.30
2018-02-01T06:08:48.195Z,19.30
2018-02-01T06:11:16.433Z,19.30
2018-02-01T06:13:44.618Z,19.30
2018-02-01T06:16:12.801Z,19.30
2018-02-01T06:18:41.059Z,19.30
2018-02-01T06:21:09.300Z,19.40
2018-02-01T06:23:37.453Z,19.40
2018-02-01T06:26:05.810Z,19.40
2018-02-01T06:28:34.090Z,19.40
2018-02-01T06:31:03.112Z,19.40
2018-02-01T06:33:32.045Z,19.50
2018-02-01T06:36:00.247Z,19.50
2018-02-01T06:38:28.422Z,19.50
2018-02-01T06:40:56.569Z,19.50
2018-02-01T06:43:24.780Z,19.50
2018-02-01T06:45:53.147Z,19.50
2018-02-01T06:48:21.304Z,19.50
2018-02-01T06:50:49.578Z,19.50
2018-02-01T06:53:17.801Z,19.50
2018-02-01T06:55:45.951Z,19.50
2018-02-01T06:58:14.165Z,19.50
2018-02-01T07:00:48.790Z,19.50
2018-02-01T07:03:16.990Z,19.50
2018-02-01T07:05:45.177Z,19.50
2018-02-01T07:08:13.392Z,19.50
2018-02-01T07:10:42.327Z,19.50
2018-02-01T07:13:10.478Z,19.50
2018-02-01T07:15:39.300Z,19.50
2018-02-01T07:18:07.538Z,19.50
2018-02-01T07:20:35.716Z,19.50
2018-02-01T07:23:03.887Z,19.50
2018-02-01T07:25:32.094Z,19.50
2018-02-01T07:28:00.277Z,19.50
2018-02-01T07:30:28.530Z,19.50
2018-02-01T07:32:56.821Z,19.50
2018-02-01T07:35:24.964Z,19.50
2018-02-01T07:37:54.119Z,19.50
2018-02-01T07:40:22.296Z,19.50
2018-02-01T07:42:51.238Z,19.50
2018-02-01T07:45:20.222Z,19.50
2018-02-01T07:47:48.382Z,19.50
2018-02-01T07:50:16.537Z,19.40
2018-02-01T07:52:44.724Z,19.50
2018-02-01T07:55:12.909Z,19.50
2018-02-01T07:57:41.045Z,19.50
2018-02-01T08:00:09.987Z,19.50
2018-02-01T08:02:38.144Z,19.50
2018-02-01T08:05:07.257Z,19.50
2018-02-01T08:07:35.548Z,19.50
2018-02-01T08:10:03.820Z,19.50
2018-02-01T08:12:31.978Z,19.50
2018-02-01T08:15:00.202Z,19.50
2018-02-01T08:17:29.109Z,19.60
2018-02-01T08:19:58.082Z,19.60
2018-02-01T08:22:27.010Z,19.60
2018-02-01T08:24:55.268Z,19.60
2018-02-01T08:27:23.399Z,19.60
2018-02-01T08:29:51.616Z,19.60
2018-02-01T08:32:19.768Z,19.60
2018-02-01T08:34:47.919Z,19.60
2018-02-01T08:37:16.253Z,19.50
2018-02-01T08:39:44.380Z,19.60
2018-02-01T08:42:12.773Z,19.50
2018-02-01T08:44:41.693Z,19.50
2018-02-01T08:47:09.868Z,19.50
2018-02-01T08:49:38.147Z,19.50
2018-02-01T08:52:06.370Z,19.50
2018-02-01T08:54:34.598Z,19.50
2018-02-01T08:57:02.750Z,19.50
2018-02-01T08:59:30.966Z,19.50
2018-02-01T09:01:59.128Z,19.50
2018-02-01T09:04:27.320Z,19.50
2018-02-01T09:06:55.502Z,19.50
2018-02-01T09:09:23.964Z,19.50
2018-02-01T09:11:52.203Z,19.50
2018-02-01T09:14:20.375Z,19.50
2018-02-01T09:16:48.534Z,19.50
2018-02-01T09:19:16.712Z,19.50
2018-02-01T09:21:44.869Z,19.50
2018-02-01T09:24:13.052Z,19.50
2018-02-01T09:26:41.210Z,19.50
2018-02-01T09:29:10.142Z,19.50
2018-02-01T09:31:38.280Z,19.40
2018-02-01T09:34:07.453Z,19.40
2018-02-01T09:36:36.383Z,19.50
2018-02-01T09:39:04.599Z,19.40
2018-02-01T09:41:32.801Z,19.50
2018-02-01T09:44:01.714Z,19.40
2018-02-01T09:46:29.864Z,19.40
2018-02-01T09:48:58.781Z,19.40
2018-02-01T09:51:26.989Z,19.40
2018-02-01T09:53:55.195Z,19.40
2018-02-01T09:56:23.346Z,19.40
2018-02-01T09:58:51.508Z,19.40
2018-02-01T10:01:20.414Z,19.40
2018-02-01T10:03:48.657Z,19.40
2018-02-01T10:06:16.796Z,19.40
2018-02-01T10:08:45.722Z,19.30
2018-02-01T10:11:14.740Z,19.30
2018-02-01T10:13:42.954Z,19.30
2018-02-01T10:16:11.117Z,19.30
2018-02-01T10:18:40.024Z,19.30
2018-02-01T10:21:08.174Z,19.20
2018-02-01T10:23:37.101Z,19.20
2018-02-01T10:26:05.237Z,19.20
2018-02-01T10:28:34.137Z,19.20
2018-02-01T10:31:03.071Z,19.30
2018-02-01T10:33:31.243Z,19.20
2018-02-01T10:35:59.461Z,19.30
2018-02-01T10:38:27.632Z,19.30
2018-02-01T10:40:56.555Z,19.30
2018-02-01T10:43:24.704Z,19.30
2018-02-01T10:45:53.704Z,19.30
2018-02-01T10:48:22.896Z,19.30
2018-02-01T10:50:51.805Z,19.30
2018-02-01T10:53:19.924Z,19.20
2018-02-01T10:55:48.124Z,19.30
2018-02-01T10:58:16.256Z,19.30
2018-02-01T11:00:45.190Z,19.20
2018-02-01T11:03:14.103Z,19.20
2018-02-01T11:05:42.266Z,19.20
2018-02-01T11:08:11.194Z,19.20
2018-02-01T11:10:39.327Z,19.20
2018-02-01T11:13:08.212Z,19.20
2018-02-01T11:15:37.187Z,19.30
2018-02-01T11:18:05.317Z,19.20
2018-02-01T11:20:33.465Z,19.30
2018-02-01T11:23:01.668Z,19.30
2018-02-01T11:25:29.812Z,19.30
2018-02-01T11:27:57.953Z,19.30
2018-02-01T11:30:26.127Z,19.30
2018-02-01T11:32:54.313Z,19.30
2018-02-01T11:35:23.257Z,19.20
2018-02-01T11:37:51.408Z,19.20
2018-02-01T11:40:19.551Z,19.30
2018-02-01T11:42:47.692Z,19.30
2018-02-01T11:45:15.910Z,19.30
2018-02-01T11:47:44.064Z,19.30
2018-02-01T11:50:13.001Z,19.20
2018-02-01T11:52:41.170Z,19.20
2018-02-01T11:55:09.364Z,19.20
2018-02-01T11:57:37.508Z,19.30
2018-02-01T12:00:05.788Z,19.30
2018-02-01T12:02:33.934Z,19.20
2018-02-01T12:05:02.128Z,19.30
2018-02-01T12:07:30.325Z,19.30
2018-02-01T12:09:58.488Z,19.20
2018-02-01T12:12:26.761Z,19.20
2018-02-01T12:14:55.681Z,19.10
2018-02-01T12:17:23.814Z,19.10
2018-02-01T12:19:51.974Z,19.10
2018-02-01T12:22:20.273Z,19.10
2018-02-01T12:24:48.486Z,19.10
2018-02-01T12:27:16.714Z,19.10
2018-02-01T12:29:44.866Z,19.10
2018-02-01T12:32:13.126Z,19.10
2018-02-01T12:34:42.066Z,19.10
2018-02-01T12:37:10.221Z,19.10
2018-02-01T12:39:38.392Z,19.10
2018-02-01T12:42:06.533Z,19.10
2018-02-01T12:47:08.796Z,19.10
2018-02-01T12:49:36.973Z,19.10
2018-02-01T12:52:05.117Z,19.10
2018-02-01T12:54:33.262Z,19.10
2018-02-01T12:57:01.400Z,19.10
2018-02-01T12:59:30.366Z,19.10
2018-02-01T13:01:58.478Z,19.10
2018-02-01T13:04:27.391Z,19.10
2018-02-01T13:06:55.666Z,19.10
2018-02-01T13:09:23.822Z,19.10
2018-02-01T13:11:51.982Z,19.10
2018-02-01T13:14:20.967Z,19.10
2018-02-01T13:16:49.109Z,19.10
2018-02-01T13:19:17.322Z,19.10
2018-02-01T13:21:46.290Z,19.10
2018-02-01T13:24:14.980Z,19.10
2018-02-01T13:26:43.194Z,19.10
2018-02-01T13:29:11.346Z,19.10
2018-02-01T13:31:40.296Z,19.10
2018-02-01T13:34:08.485Z,19.10
2018-02-01T13:36:36.910Z,19.10
2018-02-01T13:39:05.094Z,19.10
2018-02-01T13:41:33.269Z,19.00
2018-02-01T13:44:01.436Z,19.00
2018-02-01T13:46:29.721Z,19.00
2018-02-01T13:48:57.874Z,19.10
2018-02-01T13:51:26.122Z,19.10
2018-02-01T13:53:55.126Z,19.20
2018-02-01T13:56:27.153Z,19.20
2018-02-01T13:58:55.600Z,19.20
2018-02-01T14:01:23.758Z,19.20
2018-02-01T14:03:52.076Z,19.20
2018-02-01T14:06:20.270Z,19.20
2018-02-01T14:08:48.408Z,19.20
2018-02-01T14:11:16.836Z,19.20
2018-02-01T14:13:45.031Z,19.20
2018-02-01T14:16:13.503Z,19.20
2018-02-01T14:18:41.818Z,19.20
2018-02-01T14:21:10.847Z,19.20
2018-02-01T14:23:39.771Z,19.10
2018-02-01T14:26:07.932Z,19.10
2018-02-01T14:28:36.115Z,19.10
2018-02-01T14:31:04.373Z,19.10
2018-02-01T14:33:33.294Z,19.20
2018-02-01T14:36:01.543Z,19.20
2018-02-01T14:38:29.793Z,19.20
2018-02-01T14:40:57.972Z,19.20
2018-02-01T14:43:26.952Z,19.20
2018-02-01T14:45:55.165Z,19.20
2018-02-01T14:48:23.378Z,19.20
2018-02-01T14:50:51.607Z,19.20
2018-02-01T14:53:19.843Z,19.20
2018-02-01T14:55:48.021Z,19.20
2018-02-01T14:58:16.198Z,19.20
2018-02-01T15:00:45.153Z,19.20
2018-02-01T15:03:13.347Z,19.20
2018-02-01T15:05:41.607Z,19.20
2018-02-01T15:08:09.793Z,19.20
2018-02-01T15:10:38.165Z,19.20
2018-02-01T15:13:06.436Z,19.10
2018-02-01T15:15:34.595Z,19.10
2018-02-01T15:18:02.824Z,19.10
2018-02-01T15:20:31.823Z,19.10
2018-02-01T15:23:00.791Z,19.10
2018-02-01T15:25:28.986Z,19.10
2018-02-01T15:27:57.912Z,19.10
2018-02-01T15:30:26.102Z,19.10
2018-02-01T15:32:54.329Z,19.10
2018-02-01T15:35:23.309Z,19.10
2018-02-01T15:37:52.266Z,19.10
2018-02-01T15:40:20.448Z,19.10
2018-02-01T15:42:48.638Z,19.10
2018-02-01T15:45:16.793Z,19.10
2018-02-01T15:47:45.075Z,19.10
2018-02-01T15:50:13.513Z,19.10
2018-02-01T15:52:41.725Z,19.10
2018-02-01T15:55:09.983Z,19.10
2018-02-01T15:57:38.947Z,19.10
2018-02-01T16:00:07.189Z,19.10
2018-02-01T16:02:35.458Z,19.10
2018-02-01T16:05:04.385Z,19.00
2018-02-01T16:07:32.812Z,19.00
2018-02-01T16:10:00.978Z,19.00
2018-02-01T16:12:29.156Z,19.00
2018-02-01T16:14:57.316Z,19.10
2018-02-01T16:17:25.614Z,19.10
2018-02-01T16:19:53.839Z,19.10
2018-02-01T16:22:22.015Z,19.10
2018-02-01T16:24:50.192Z,19.10
2018-02-01T16:27:18.397Z,19.10
2018-02-01T16:29:46.597Z,19.10
2018-02-01T16:32:17.042Z,19.10
2018-02-01T16:34:45.276Z,19.10
2018-02-01T16:37:13.426Z,19.20
2018-02-01T16:39:41.594Z,19.10
2018-02-01T16:42:09.795Z,19.20
2018-02-01T16:44:37.986Z,19.20
2018-02-01T16:47:06.943Z,19.20
2018-02-01T16:49:35.138Z,19.20
2018-02-01T16:52:03.290Z,19.20
2018-02-01T16:54:31.448Z,19.20
2018-02-01T16:56:59.666Z,19.20
2018-02-01T16:59:27.891Z,19.20
2018-02-01T17:01:56.032Z,19.20
2018-02-01T17:04:24.179Z,19.10
2018-02-01T17:06:52.335Z,19.10
2018-02-01T17:09:21.314Z,19.20
2018-02-01T17:11:49.555Z,19.20
2018-02-01T17:14:22.676Z,19.20
2018-02-01T17:16:50.964Z,19.10
2018-02-01T17:19:19.121Z,19.20
2018-02-01T17:21:47.292Z,19.20
2018-02-01T17:24:22.167Z,19.20
2018-02-01T17:26:51.098Z,19.10
2018-02-01T17:29:19.577Z,19.20
2018-02-01T17:31:47.778Z,19.20
2018-02-01T17:34:16.842Z,19.20
2018-02-01T17:36:57.359Z,19.20
2018-02-01T17:39:25.872Z,19.20
2018-02-01T17:42:01.635Z,19.20
2018-02-01T17:44:30.073Z,19.20
2018-02-01T17:46:59.017Z,19.20
2018-02-01T17:49:27.192Z,19.20
2018-02-01T17:51:55.412Z,19.20
2018-02-01T17:54:23.663Z,19.20
2018-02-01T17:56:53.360Z,19.20
2018-02-01T17:59:21.504Z,19.20
2018-02-01T18:01:50.876Z,19.20
2018-02-01T18:04:19.107Z,19.20
2018-02-01T18:06:47.372Z,19.20
2018-02-01T18:09:15.523Z,19.20
2018-02-01T18:11:43.752Z,19.20
2018-02-01T18:14:13.662Z,19.20
2018-02-01T18:16:41.895Z,19.20
2018-02-01T18:19:10.058Z,19.20
2018-02-01T18:21:38.223Z,19.20
2018-02-01T18:24:06.373Z,19.20
2018-02-01T18:26:36.986Z,19.10
2018-02-01T18:29:05.155Z,19.10
2018-02-01T18:31:33.315Z,19.20
2018-02-01T18:34:01.560Z,19.10
2018-02-01T18:36:29.750Z,19.10
2018-02-01T18:38:57.989Z,19.10
2018-02-01T18:41:26.167Z,19.10
2018-02-01T18:43:54.334Z,19.10
2018-02-01T18:46:22.551Z,19.10
2018-02-01T18:48:50.745Z,19.20
2018-02-01T18:51:18.953Z,19.20
2018-02-01T18:53:47.151Z,19.20
2018-02-01T18:56:15.688Z,19.20
2018-02-01T18:58:43.878Z,19.20
2018-02-01T19:01:12.035Z,19.20
2018-02-01T19:03:40.963Z,19.20
2018-02-01T19:06:09.117Z,19.20
2018-02-01T19:08:37.411Z,19.20
2018-02-01T19:11:05.772Z,19.20
2018-02-01T19:13:34.031Z,19.20
2018-02-01T19:16:03.012Z,19.20
2018-02-01T19:18:31.986Z,19.20
2018-02-01T19:21:00.253Z,19.20
2018-02-01T19:23:28.475Z,19.20
2018-02-01T19:25:56.745Z,19.20
2018-02-01T19:28:26.622Z,19.20
2018-02-01T19:30:54.816Z,19.20
2018-02-01T19:33:23.806Z,19.20
2018-02-01T19:35:52.019Z,19.20
2018-02-01T19:38:20.243Z,19.20
2018-02-01T19:40:48.530Z,19.20
2018-02-01T19:43:16.758Z,19.20
2018-02-01T19:45:45.840Z,19.20
2018-02-01T19:48:14.075Z,19.20
2018-02-01T19:50:44.915Z,19.20
2018-02-01T19:53:13.889Z,19.20
2018-02-01T19:55:42.107Z,19.20
2018-02-01T19:58:10.347Z,19.10
2018-02-01T20:00:38.619Z,19.10
2018-02-01T20:03:06.893Z,19.10
2018-02-01T20:05:35.058Z,19.10
2018-02-01T20:08:03.222Z,19.10
2018-02-01T20:10:31.411Z,19.10
2018-02-01T20:12:59.588Z,19.20
2018-02-01T20:15:27.802Z,19.10
2018-02-01T20:17:56.146Z,19.10
2018-02-01T20:20:24.313Z,19.10
2018-02-01T20:22:52.523Z,19.10
2018-02-01T20:25:20.722Z,19.10
2018-02-01T20:27:48.970Z,19.10
2018-02-01T20:30:17.384Z,19.10
2018-02-01T20:32:45.642Z,19.10
2018-02-01T20:35:13.831Z,19.10
2018-02-01T20:37:42.104Z,19.20
2018-02-01T20:40:10.274Z,19.20
2018-02-01T20:42:38.503Z,19.20
2018-02-01T20:45:06.689Z,19.10
2018-02-01T20:47:34.992Z,19.20
2018-02-01T20:50:03.177Z,19.20
2018-02-01T20:52:31.399Z,19.20
2018-02-01T20:55:01.301Z,19.20
2018-02-01T20:57:29.705Z,19.20
2018-02-01T20:59:58.034Z,19.20
2018-02-01T21:02:26.220Z,19.10
2018-02-01T21:04:54.447Z,19.10
2018-02-01T21:07:22.720Z,19.00
2018-02-01T21:09:50.947Z,19.00
2018-02-01T21:12:22.630Z,18.90
2018-02-01T21:14:50.812Z,18.90
2018-02-01T21:17:19.041Z,18.80
2018-02-01T21:19:47.446Z,18.70
2018-02-01T21:22:15.691Z,18.70
2018-02-01T21:24:43.988Z,18.70
2018-02-01T21:27:12.165Z,18.60
2018-02-01T21:29:41.125Z,18.60
2018-02-01T21:32:09.304Z,18.60
2018-02-01T21:34:37.510Z,18.60
2018-02-01T21:37:06.418Z,18.60
2018-02-01T21:39:34.578Z,18.60
2018-02-01T21:42:02.733Z,18.60
2018-02-01T21:44:30.893Z,18.60
2018-02-01T21:47:03.763Z,18.60
2018-02-01T21:49:33.624Z,18.60
2018-02-01T21:52:05.032Z,18.60
2018-02-01T21:54:38.157Z,18.60
2018-02-01T22:00:32.445Z,18.60
2018-02-01T22:06:04.861Z,18.60
2018-02-01T22:09:02.404Z,18.60
2018-02-01T22:11:34.370Z,18.60
2018-02-01T22:14:31.863Z,18.60
2018-02-01T22:17:00.145Z,18.60
2018-02-01T22:19:28.322Z,18.60
2018-02-01T22:21:56.476Z,18.50
2018-02-01T22:24:24.646Z,18.60
2018-02-01T22:26:52.882Z,18.60
2018-02-01T22:29:21.108Z,18.50
2018-02-01T22:31:49.375Z,18.60
2018-02-01T22:34:17.892Z,18.60
2018-02-01T22:36:46.077Z,18.60
2018-02-01T22:39:14.259Z,18.60
2018-02-01T22:41:44.515Z,18.50
2018-02-01T22:44:12.722Z,18.50
2018-02-01T22:46:41.642Z,18.50
2018-02-01T22:49:09.804Z,18.50
2018-02-01T22:51:38.060Z,18.50
2018-02-01T22:54:06.333Z,18.50
2018-02-01T22:56:34.538Z,18.40
2018-02-01T22:59:02.719Z,18.40
2018-02-01T23:01:31.657Z,18.40
2018-02-01T23:04:00.726Z,18.40
2018-02-01T23:06:28.876Z,18.40
2018-02-01T23:08:57.826Z,18.40
2018-02-01T23:11:25.980Z,18.40
2018-02-01T23:13:55.021Z,18.40
2018-02-01T23:16:24.026Z,18.40
2018-02-01T23:18:52.161Z,18.40
2018-02-01T23:21:20.452Z,18.40
2018-02-01T23:23:48.606Z,18.30
2018-02-01T23:26:16.999Z,18.40
2018-02-01T23:28:45.167Z,18.30
2018-02-01T23:31:13.349Z,18.30
2018-02-01T23:33:41.548Z,18.30
2018-02-01T23:36:10.481Z,18.40
2018-02-01T23:38:38.677Z,18.30
2018-02-01T23:41:06.840Z,18.30
2018-02-01T23:43:35.001Z,18.30
2018-02-01T23:46:03.174Z,18.30
2018-02-01T23:48:31.455Z,18.30
2018-02-01T23:50:59.639Z,18.30
2018-02-01T23:53:27.802Z,18.30
2018-02-01T23:55:56.029Z,18.30
2018-02-01T23:58:24.958Z,18.30
